This is the latest recevied weather packets stored in our database for station/object W1ERB-13. If no packets are shown the sender has not sent any weather packets the latest 10 day(s).
| Time | Temp. | Humidity | Pressure | Rain* | Wind** | Luminosity | Snow |
|---|---|---|---|---|---|---|---|
| 1777466181 | 11.67° C | 65% | 1016 hPa | 0 mm | - | 86 W/m² | - |
| 1777465878 | 11.67° C | 66% | 1016.3 hPa | 0 mm | - | 297 W/m² | - |
| 1777465574 | 12.78° C | 64% | 1016.2 hPa | 0 mm | - | 291 W/m² | - |
| 1777465268 | 12.22° C | 65% | 1016.2 hPa | 0 mm | - | 301 W/m² | - |
| 1777464963 | 12.22° C | 63% | 1016.2 hPa | 0 mm | - | 297 W/m² | - |
| 1777464658 | 11.67° C | 67% | 1016.8 hPa | 0 mm | - | 292 W/m² | - |
| 1777464354 | 11.67° C | 65% | 1016.7 hPa | 0 mm | - | 196 W/m² | - |
| 1777464050 | 11.67° C | 68% | 1016.7 hPa | 0 mm | - | 245 W/m² | - |
| 1777463745 | 11.11° C | 67% | 1017 hPa | 0 mm | - | 140 W/m² | - |
| 1777463440 | 11.67° C | 65% | 1016.9 hPa | 0 mm | - | 184 W/m² | - |
| 1777463136 | 11.11° C | 67% | 1016.7 hPa | 0 mm | - | 281 W/m² | - |
| 1777462832 | 11.11° C | 69% | 1016.9 hPa | 0 mm | - | 254 W/m² | - |
| 1777462527 | 10.56° C | 70% | 1016.9 hPa | 0 mm | - | 196 W/m² | - |
| 1777462224 | 10.56° C | 70% | 1016.9 hPa | 0 mm | - | 154 W/m² | - |
| 1777461921 | 10° C | 72% | 1016.9 hPa | 0 mm | - | 139 W/m² | - |
| 1777461618 | 10.56° C | 73% | 1016.9 hPa | 0 mm | - | 130 W/m² | - |
| 1777461313 | 10.56° C | 75% | 1016.8 hPa | 0 mm | - | 101 W/m² | - |
| 1777461009 | 10.56° C | 76% | 1017.1 hPa | 0 mm | - | 86 W/m² | - |
| 1777460705 | 10.56° C | 76% | 1016.8 hPa | 0 mm | - | 90 W/m² | - |
| 1777460401 | 10° C | 77% | 1017.1 hPa | 0 mm | - | 91 W/m² | - |
| 1777460096 | 9.44° C | 80% | 1016.7 hPa | 0 mm | - | 77 W/m² | - |
| 1777459794 | 8.89° C | 83% | 1016.9 hPa | 0 mm | - | 73 W/m² | - |
| 1777459490 | 7.78° C | 91% | 1017 hPa | 0 mm | - | 68 W/m² | - |
| 1777459188 | 6.67° C | 93% | 1016.9 hPa | 0 mm | - | 55 W/m² | - |
| 1777458885 | 5.56° C | 94% | 1017.1 hPa | 0 mm | - | 42 W/m² | - |
* Rain latest hour (hover to see other rain measurements)
** Current wind speed in m/s (hover to see current wind gust speed)